sensor_id;sensor_type;location;lat;lon;timestamp;temperature;humidity
25302;DHT22;13243;50.888;4.724;2023-03-13T00:03:42;11.00;99.90
25302;DHT22;13243;50.888;4.724;2023-03-13T00:08:44;11.10;99.90
25302;DHT22;13243;50.888;4.724;2023-03-13T00:13:46;11.00;99.90
25302;DHT22;13243;50.888;4.724;2023-03-13T00:18:50;11.00;99.90
25302;DHT22;13243;50.888;4.724;2023-03-13T00:23:53;11.00;99.90
25302;DHT22;13243;50.888;4.724;2023-03-13T00:28:55;11.00;99.90
25302;DHT22;13243;50.888;4.724;2023-03-13T00:34:00;11.10;99.90
25302;DHT22;13243;50.888;4.724;2023-03-13T00:39:04;11.10;99.90
25302;DHT22;13243;50.888;4.724;2023-03-13T00:44:06;11.10;99.90
25302;DHT22;13243;50.888;4.724;2023-03-13T00:49:08;11.10;99.90
25302;DHT22;13243;50.888;4.724;2023-03-13T00:54:10;11.10;99.90
25302;DHT22;13243;50.888;4.724;2023-03-13T00:59:13;11.00;99.90
25302;DHT22;13243;50.888;4.724;2023-03-13T01:04:15;11.00;99.90
25302;DHT22;13243;50.888;4.724;2023-03-13T01:09:17;11.00;99.90
25302;DHT22;13243;50.888;4.724;2023-03-13T01:14:19;11.00;99.90
25302;DHT22;13243;50.888;4.724;2023-03-13T01:19:21;11.10;99.90
25302;DHT22;13243;50.888;4.724;2023-03-13T01:24:23;11.10;99.90
25302;DHT22;13243;50.888;4.724;2023-03-13T01:29:25;11.10;99.90
25302;DHT22;13243;50.888;4.724;2023-03-13T01:34:27;11.20;99.90
25302;DHT22;13243;50.888;4.724;2023-03-13T01:39:29;11.30;99.90
25302;DHT22;13243;50.888;4.724;2023-03-13T01:44:52;11.30;99.90
25302;DHT22;13243;50.888;4.724;2023-03-13T01:49:54;11.40;99.90
25302;DHT22;13243;50.888;4.724;2023-03-13T01:55:08;11.50;99.90
25302;DHT22;13243;50.888;4.724;2023-03-13T02:00:14;11.40;99.90
25302;DHT22;13243;50.888;4.724;2023-03-13T02:05:19;11.50;99.90
25302;DHT22;13243;50.888;4.724;2023-03-13T02:10:22;11.50;99.90
25302;DHT22;13243;50.888;4.724;2023-03-13T02:15:26;11.50;99.90
25302;DHT22;13243;50.888;4.724;2023-03-13T02:20:28;11.50;99.90
25302;DHT22;13243;50.888;4.724;2023-03-13T02:25:46;11.60;99.90
25302;DHT22;13243;50.888;4.724;2023-03-13T02:30:50;11.70;99.90
25302;DHT22;13243;50.888;4.724;2023-03-13T02:35:55;11.70;99.90
25302;DHT22;13243;50.888;4.724;2023-03-13T02:40:59;11.90;99.90
25302;DHT22;13243;50.888;4.724;2023-03-13T02:46:05;11.90;99.90
25302;DHT22;13243;50.888;4.724;2023-03-13T02:56:21;12.10;99.90
25302;DHT22;13243;50.888;4.724;2023-03-13T03:01:24;12.10;99.90
25302;DHT22;13243;50.888;4.724;2023-03-13T03:06:26;12.20;99.90
25302;DHT22;13243;50.888;4.724;2023-03-13T03:11:28;12.30;99.90
25302;DHT22;13243;50.888;4.724;2023-03-13T03:16:30;12.40;99.90
25302;DHT22;13243;50.888;4.724;2023-03-13T03:21:33;12.40;99.90
25302;DHT22;13243;50.888;4.724;2023-03-13T03:26:35;12.40;99.90
25302;DHT22;13243;50.888;4.724;2023-03-13T03:31:37;12.50;99.90
25302;DHT22;13243;50.888;4.724;2023-03-13T03:36:39;12.50;99.90
25302;DHT22;13243;50.888;4.724;2023-03-13T03:41:40;12.60;99.90
25302;DHT22;13243;50.888;4.724;2023-03-13T03:46:42;12.70;99.90
25302;DHT22;13243;50.888;4.724;2023-03-13T03:51:44;12.70;99.90
25302;DHT22;13243;50.888;4.724;2023-03-13T03:56:46;12.80;99.90
25302;DHT22;13243;50.888;4.724;2023-03-13T04:01:48;12.70;99.90
25302;DHT22;13243;50.888;4.724;2023-03-13T04:06:50;12.80;99.90
25302;DHT22;13243;50.888;4.724;2023-03-13T04:11:51;12.80;99.90
25302;DHT22;13243;50.888;4.724;2023-03-13T04:16:53;12.80;99.90
25302;DHT22;13243;50.888;4.724;2023-03-13T04:21:55;12.80;99.90
25302;DHT22;13243;50.888;4.724;2023-03-13T04:26:57;12.80;99.90
25302;DHT22;13243;50.888;4.724;2023-03-13T04:32:01;12.80;99.90
25302;DHT22;13243;50.888;4.724;2023-03-13T04:37:03;12.80;99.90
25302;DHT22;13243;50.888;4.724;2023-03-13T04:42:09;12.90;99.90
25302;DHT22;13243;50.888;4.724;2023-03-13T04:47:11;12.90;99.90
25302;DHT22;13243;50.888;4.724;2023-03-13T04:52:13;12.90;99.90
25302;DHT22;13243;50.888;4.724;2023-03-13T04:57:14;13.00;99.90
25302;DHT22;13243;50.888;4.724;2023-03-13T05:02:16;13.10;99.90
25302;DHT22;13243;50.888;4.724;2023-03-13T05:07:18;13.10;99.90
25302;DHT22;13243;50.888;4.724;2023-03-13T05:12:20;13.10;99.90
25302;DHT22;13243;50.888;4.724;2023-03-13T05:17:22;13.10;99.90
25302;DHT22;13243;50.888;4.724;2023-03-13T05:22:23;13.10;99.90
25302;DHT22;13243;50.888;4.724;2023-03-13T05:27:25;13.10;99.90
25302;DHT22;13243;50.888;4.724;2023-03-13T05:32:27;13.20;99.90
25302;DHT22;13243;50.888;4.724;2023-03-13T05:37:29;13.20;99.90
25302;DHT22;13243;50.888;4.724;2023-03-13T05:42:31;13.20;99.90
25302;DHT22;13243;50.888;4.724;2023-03-13T05:47:33;13.30;99.90
25302;DHT22;13243;50.888;4.724;2023-03-13T05:52:35;13.30;99.90
25302;DHT22;13243;50.888;4.724;2023-03-13T05:57:37;13.20;99.90
25302;DHT22;13243;50.888;4.724;2023-03-13T06:02:40;13.20;99.90
25302;DHT22;13243;50.888;4.724;2023-03-13T06:07:42;13.30;99.90
25302;DHT22;13243;50.888;4.724;2023-03-13T06:12:51;13.30;99.90
25302;DHT22;13243;50.888;4.724;2023-03-13T06:17:53;13.30;99.90
25302;DHT22;13243;50.888;4.724;2023-03-13T06:22:55;13.30;99.90
25302;DHT22;13243;50.888;4.724;2023-03-13T06:27:57;13.30;99.90
25302;DHT22;13243;50.888;4.724;2023-03-13T06:32:58;13.30;99.90
25302;DHT22;13243;50.888;4.724;2023-03-13T06:38:01;13.20;99.90
25302;DHT22;13243;50.888;4.724;2023-03-13T06:43:02;13.30;99.90
25302;DHT22;13243;50.888;4.724;2023-03-13T06:48:04;13.40;99.90
25302;DHT22;13243;50.888;4.724;2023-03-13T06:53:07;13.40;99.90
25302;DHT22;13243;50.888;4.724;2023-03-13T06:58:14;13.50;99.90
25302;DHT22;13243;50.888;4.724;2023-03-13T07:03:32;13.40;99.90
25302;DHT22;13243;50.888;4.724;2023-03-13T07:08:35;13.40;99.90
25302;DHT22;13243;50.888;4.724;2023-03-13T07:13:37;13.40;99.90
25302;DHT22;13243;50.888;4.724;2023-03-13T07:18:40;13.40;99.90
25302;DHT22;13243;50.888;4.724;2023-03-13T07:23:47;13.50;99.90
25302;DHT22;13243;50.888;4.724;2023-03-13T07:28:49;13.60;99.90
25302;DHT22;13243;50.888;4.724;2023-03-13T07:33:53;13.70;99.90
25302;DHT22;13243;50.888;4.724;2023-03-13T07:38:57;13.70;99.90
25302;DHT22;13243;50.888;4.724;2023-03-13T07:43:59;13.60;99.90
25302;DHT22;13243;50.888;4.724;2023-03-13T07:49:01;13.70;99.90
25302;DHT22;13243;50.888;4.724;2023-03-13T07:54:03;13.80;99.90
25302;DHT22;13243;50.888;4.724;2023-03-13T07:59:05;13.90;99.90
25302;DHT22;13243;50.888;4.724;2023-03-13T08:04:12;13.90;99.90
25302;DHT22;13243;50.888;4.724;2023-03-13T08:09:14;13.80;99.90
25302;DHT22;13243;50.888;4.724;2023-03-13T08:14:16;13.80;99.90
25302;DHT22;13243;50.888;4.724;2023-03-13T08:19:18;13.80;99.90
25302;DHT22;13243;50.888;4.724;2023-03-13T08:24:20;13.70;99.90
25302;DHT22;13243;50.888;4.724;2023-03-13T08:29:21;13.70;99.90
25302;DHT22;13243;50.888;4.724;2023-03-13T08:34:23;14.00;99.90
25302;DHT22;13243;50.888;4.724;2023-03-13T08:39:25;14.20;99.90
25302;DHT22;13243;50.888;4.724;2023-03-13T08:44:27;14.30;99.90
25302;DHT22;13243;50.888;4.724;2023-03-13T08:49:29;14.30;99.90
25302;DHT22;13243;50.888;4.724;2023-03-13T08:54:32;14.20;99.90
25302;DHT22;13243;50.888;4.724;2023-03-13T08:59:34;14.30;99.90
25302;DHT22;13243;50.888;4.724;2023-03-13T09:04:36;14.40;99.90
25302;DHT22;13243;50.888;4.724;2023-03-13T09:09:37;14.30;99.90
25302;DHT22;13243;50.888;4.724;2023-03-13T09:14:39;14.60;99.90
25302;DHT22;13243;50.888;4.724;2023-03-13T09:19:41;14.80;99.90
25302;DHT22;13243;50.888;4.724;2023-03-13T09:25:00;14.80;99.90
25302;DHT22;13243;50.888;4.724;2023-03-13T09:30:01;15.00;99.90
25302;DHT22;13243;50.888;4.724;2023-03-13T09:35:04;15.10;99.90
25302;DHT22;13243;50.888;4.724;2023-03-13T09:40:12;15.10;99.90
25302;DHT22;13243;50.888;4.724;2023-03-13T09:45:29;15.10;99.90
25302;DHT22;13243;50.888;4.724;2023-03-13T09:50:38;15.30;99.90
25302;DHT22;13243;50.888;4.724;2023-03-13T09:55:43;15.40;99.90
25302;DHT22;13243;50.888;4.724;2023-03-13T10:01:03;15.50;99.90
25302;DHT22;13243;50.888;4.724;2023-03-13T10:06:20;15.30;99.90
25302;DHT22;13243;50.888;4.724;2023-03-13T10:11:50;15.60;99.90
25302;DHT22;13243;50.888;4.724;2023-03-13T10:17:49;15.80;99.90
25302;DHT22;13243;50.888;4.724;2023-03-13T10:22:28;15.90;99.90
25302;DHT22;13243;50.888;4.724;2023-03-13T10:27:42;15.90;99.90
25302;DHT22;13243;50.888;4.724;2023-03-13T10:32:43;16.20;99.90
25302;DHT22;13243;50.888;4.724;2023-03-13T10:37:45;16.00;99.90
25302;DHT22;13243;50.888;4.724;2023-03-13T10:42:47;15.80;99.90
25302;DHT22;13243;50.888;4.724;2023-03-13T10:48:00;15.90;99.90
25302;DHT22;13243;50.888;4.724;2023-03-13T10:58:29;15.80;99.90
25302;DHT22;13243;50.888;4.724;2023-03-13T11:03:31;16.50;99.90
25302;DHT22;13243;50.888;4.724;2023-03-13T11:08:35;16.30;99.90
25302;DHT22;13243;50.888;4.724;2023-03-13T11:13:42;16.60;99.90
25302;DHT22;13243;50.888;4.724;2023-03-13T11:24:14;16.90;99.90
25302;DHT22;13243;50.888;4.724;2023-03-13T11:29:31;16.60;99.90
25302;DHT22;13243;50.888;4.724;2023-03-13T11:34:47;16.90;99.90
25302;DHT22;13243;50.888;4.724;2023-03-13T11:45:27;16.50;99.90
25302;DHT22;13243;50.888;4.724;2023-03-13T11:55:40;16.70;99.90
25302;DHT22;13243;50.888;4.724;2023-03-13T12:05:56;17.00;99.90
25302;DHT22;13243;50.888;4.724;2023-03-13T12:16:44;17.50;99.90
25302;DHT22;13243;50.888;4.724;2023-03-13T12:21:49;17.40;99.90
25302;DHT22;13243;50.888;4.724;2023-03-13T12:27:11;17.40;99.90
25302;DHT22;13243;50.888;4.724;2023-03-13T12:37:49;17.60;99.90
25302;DHT22;13243;50.888;4.724;2023-03-13T12:43:18;17.70;99.90
25302;DHT22;13243;50.888;4.724;2023-03-13T12:58:55;17.50;99.90
25302;DHT22;13243;50.888;4.724;2023-03-13T13:04:17;17.60;99.90
25302;DHT22;13243;50.888;4.724;2023-03-13T13:09:29;17.80;99.90
25302;DHT22;13243;50.888;4.724;2023-03-13T13:15:10;17.10;99.90
25302;DHT22;13243;50.888;4.724;2023-03-13T13:25:38;17.50;99.90
25302;DHT22;13243;50.888;4.724;2023-03-13T13:30:40;17.20;99.90
25302;DHT22;13243;50.888;4.724;2023-03-13T13:35:43;17.50;99.90
25302;DHT22;13243;50.888;4.724;2023-03-13T13:51:24;17.20;99.90
25302;DHT22;13243;50.888;4.724;2023-03-13T13:56:36;17.20;99.90
25302;DHT22;13243;50.888;4.724;2023-03-13T14:01:40;17.30;99.90
25302;DHT22;13243;50.888;4.724;2023-03-13T14:06:47;17.30;99.90
25302;DHT22;13243;50.888;4.724;2023-03-13T14:11:50;18.20;99.90
25302;DHT22;13243;50.888;4.724;2023-03-13T14:16:54;18.80;99.90
25302;DHT22;13243;50.888;4.724;2023-03-13T14:22:06;18.80;99.90
25302;DHT22;13243;50.888;4.724;2023-03-13T14:27:16;18.70;99.90
25302;DHT22;13243;50.888;4.724;2023-03-13T14:32:18;18.90;99.90
25302;DHT22;13243;50.888;4.724;2023-03-13T14:37:40;19.70;99.90
25302;DHT22;13243;50.888;4.724;2023-03-13T14:42:45;19.10;99.90
25302;DHT22;13243;50.888;4.724;2023-03-13T14:47:49;18.80;99.90
25302;DHT22;13243;50.888;4.724;2023-03-13T14:52:54;19.10;99.90
25302;DHT22;13243;50.888;4.724;2023-03-13T14:58:04;19.20;99.90
25302;DHT22;13243;50.888;4.724;2023-03-13T15:08:23;18.30;99.90
25302;DHT22;13243;50.888;4.724;2023-03-13T15:13:32;18.70;99.90
25302;DHT22;13243;50.888;4.724;2023-03-13T15:18:34;18.90;99.90
25302;DHT22;13243;50.888;4.724;2023-03-13T15:23:36;19.60;99.90
25302;DHT22;13243;50.888;4.724;2023-03-13T15:28:37;19.00;99.90
25302;DHT22;13243;50.888;4.724;2023-03-13T15:33:40;19.50;99.90
25302;DHT22;13243;50.888;4.724;2023-03-13T15:38:42;19.00;99.90
25302;DHT22;13243;50.888;4.724;2023-03-13T15:43:44;19.50;99.90
25302;DHT22;13243;50.888;4.724;2023-03-13T15:48:46;19.40;99.90
25302;DHT22;13243;50.888;4.724;2023-03-13T15:53:48;19.20;99.90
25302;DHT22;13243;50.888;4.724;2023-03-13T15:58:50;18.50;99.90
25302;DHT22;13243;50.888;4.724;2023-03-13T16:03:52;18.80;99.90
25302;DHT22;13243;50.888;4.724;2023-03-13T16:08:54;19.10;99.90
25302;DHT22;13243;50.888;4.724;2023-03-13T16:13:56;18.40;99.90
25302;DHT22;13243;50.888;4.724;2023-03-13T16:18:58;17.80;99.90
25302;DHT22;13243;50.888;4.724;2023-03-13T16:24:01;17.60;99.90
25302;DHT22;13243;50.888;4.724;2023-03-13T16:29:02;17.50;99.90
25302;DHT22;13243;50.888;4.724;2023-03-13T16:34:04;17.20;99.90
25302;DHT22;13243;50.888;4.724;2023-03-13T16:39:11;17.10;99.90
25302;DHT22;13243;50.888;4.724;2023-03-13T16:44:14;17.00;99.90
25302;DHT22;13243;50.888;4.724;2023-03-13T16:49:16;16.90;99.90
25302;DHT22;13243;50.888;4.724;2023-03-13T16:54:17;16.90;99.90
25302;DHT22;13243;50.888;4.724;2023-03-13T16:59:19;16.80;99.90
25302;DHT22;13243;50.888;4.724;2023-03-13T17:04:22;16.70;99.90
25302;DHT22;13243;50.888;4.724;2023-03-13T17:09:24;16.50;99.90
25302;DHT22;13243;50.888;4.724;2023-03-13T17:14:25;16.50;99.90
25302;DHT22;13243;50.888;4.724;2023-03-13T17:19:27;16.40;99.90
25302;DHT22;13243;50.888;4.724;2023-03-13T17:24:29;16.30;99.90
25302;DHT22;13243;50.888;4.724;2023-03-13T17:29:31;16.30;99.90
25302;DHT22;13243;50.888;4.724;2023-03-13T17:34:33;16.20;99.90
25302;DHT22;13243;50.888;4.724;2023-03-13T17:39:35;16.10;99.90
25302;DHT22;13243;50.888;4.724;2023-03-13T17:44:38;16.00;99.90
25302;DHT22;13243;50.888;4.724;2023-03-13T17:49:42;15.90;99.90
25302;DHT22;13243;50.888;4.724;2023-03-13T17:54:44;15.90;99.90
25302;DHT22;13243;50.888;4.724;2023-03-13T17:59:47;15.70;99.90
25302;DHT22;13243;50.888;4.724;2023-03-13T18:04:52;15.70;99.90
25302;DHT22;13243;50.888;4.724;2023-03-13T18:09:54;15.60;99.90
25302;DHT22;13243;50.888;4.724;2023-03-13T18:14:56;15.40;99.90
25302;DHT22;13243;50.888;4.724;2023-03-13T18:19:57;15.40;99.90
25302;DHT22;13243;50.888;4.724;2023-03-13T18:24:59;15.30;99.90
25302;DHT22;13243;50.888;4.724;2023-03-13T18:30:01;15.20;99.90
25302;DHT22;13243;50.888;4.724;2023-03-13T18:35:03;15.10;99.90
25302;DHT22;13243;50.888;4.724;2023-03-13T18:40:20;15.00;99.90
25302;DHT22;13243;50.888;4.724;2023-03-13T18:45:24;15.00;99.90
25302;DHT22;13243;50.888;4.724;2023-03-13T18:50:29;14.90;99.90
25302;DHT22;13243;50.888;4.724;2023-03-13T18:55:31;14.80;99.90
25302;DHT22;13243;50.888;4.724;2023-03-13T19:00:33;14.70;99.90
25302;DHT22;13243;50.888;4.724;2023-03-13T19:05:35;14.60;99.90
25302;DHT22;13243;50.888;4.724;2023-03-13T19:10:37;14.50;99.90
25302;DHT22;13243;50.888;4.724;2023-03-13T19:15:40;14.50;99.90
25302;DHT22;13243;50.888;4.724;2023-03-13T19:20:42;14.30;99.90
25302;DHT22;13243;50.888;4.724;2023-03-13T19:25:45;14.30;99.90
25302;DHT22;13243;50.888;4.724;2023-03-13T19:30:46;14.20;99.90
25302;DHT22;13243;50.888;4.724;2023-03-13T19:35:48;14.20;99.90
25302;DHT22;13243;50.888;4.724;2023-03-13T19:40:50;14.10;99.90
25302;DHT22;13243;50.888;4.724;2023-03-13T19:45:53;14.00;99.90
25302;DHT22;13243;50.888;4.724;2023-03-13T19:50:57;14.00;99.90
25302;DHT22;13243;50.888;4.724;2023-03-13T19:55:59;13.80;99.90
25302;DHT22;13243;50.888;4.724;2023-03-13T20:01:01;13.80;99.90
25302;DHT22;13243;50.888;4.724;2023-03-13T20:06:23;13.70;99.90
25302;DHT22;13243;50.888;4.724;2023-03-13T20:11:26;13.60;99.90
25302;DHT22;13243;50.888;4.724;2023-03-13T20:16:28;13.50;99.90
25302;DHT22;13243;50.888;4.724;2023-03-13T20:21:36;13.50;99.90
25302;DHT22;13243;50.888;4.724;2023-03-13T20:26:41;13.50;99.90
25302;DHT22;13243;50.888;4.724;2023-03-13T20:31:43;13.40;99.90
25302;DHT22;13243;50.888;4.724;2023-03-13T20:36:45;13.30;99.90
25302;DHT22;13243;50.888;4.724;2023-03-13T20:41:47;13.30;99.90
25302;DHT22;13243;50.888;4.724;2023-03-13T20:46:48;13.30;99.90
25302;DHT22;13243;50.888;4.724;2023-03-13T20:51:50;13.10;99.90
25302;DHT22;13243;50.888;4.724;2023-03-13T20:56:52;13.20;99.90
25302;DHT22;13243;50.888;4.724;2023-03-13T21:01:55;13.20;99.90
25302;DHT22;13243;50.888;4.724;2023-03-13T21:06:57;13.20;99.90
25302;DHT22;13243;50.888;4.724;2023-03-13T21:12:05;13.20;99.90
25302;DHT22;13243;50.888;4.724;2023-03-13T21:17:07;13.10;99.90
25302;DHT22;13243;50.888;4.724;2023-03-13T21:22:11;13.10;99.90
25302;DHT22;13243;50.888;4.724;2023-03-13T21:27:14;13.00;99.90
25302;DHT22;13243;50.888;4.724;2023-03-13T21:32:16;13.00;99.90
25302;DHT22;13243;50.888;4.724;2023-03-13T21:37:20;13.10;99.90
25302;DHT22;13243;50.888;4.724;2023-03-13T21:42:22;13.00;99.90
25302;DHT22;13243;50.888;4.724;2023-03-13T21:47:24;13.00;99.90
25302;DHT22;13243;50.888;4.724;2023-03-13T21:52:26;13.00;99.90
25302;DHT22;13243;50.888;4.724;2023-03-13T21:57:28;13.00;99.90
25302;DHT22;13243;50.888;4.724;2023-03-13T22:02:30;13.10;99.90
25302;DHT22;13243;50.888;4.724;2023-03-13T22:07:33;13.10;99.90
25302;DHT22;13243;50.888;4.724;2023-03-13T22:12:35;13.20;99.90
25302;DHT22;13243;50.888;4.724;2023-03-13T22:17:37;13.20;99.90
25302;DHT22;13243;50.888;4.724;2023-03-13T22:22:39;13.20;99.90
25302;DHT22;13243;50.888;4.724;2023-03-13T22:27:41;13.20;99.90
25302;DHT22;13243;50.888;4.724;2023-03-13T22:32:43;13.20;99.90
25302;DHT22;13243;50.888;4.724;2023-03-13T22:37:45;13.10;99.90
25302;DHT22;13243;50.888;4.724;2023-03-13T22:42:47;13.00;99.90
25302;DHT22;13243;50.888;4.724;2023-03-13T22:47:49;12.90;99.90
25302;DHT22;13243;50.888;4.724;2023-03-13T22:52:51;12.80;99.90
25302;DHT22;13243;50.888;4.724;2023-03-13T22:57:56;12.80;99.90
25302;DHT22;13243;50.888;4.724;2023-03-13T23:03:02;12.80;99.90
25302;DHT22;13243;50.888;4.724;2023-03-13T23:08:04;12.70;99.90
25302;DHT22;13243;50.888;4.724;2023-03-13T23:13:05;12.60;99.90
25302;DHT22;13243;50.888;4.724;2023-03-13T23:18:07;12.60;99.90
25302;DHT22;13243;50.888;4.724;2023-03-13T23:23:09;12.60;99.90
25302;DHT22;13243;50.888;4.724;2023-03-13T23:28:11;12.40;99.90
25302;DHT22;13243;50.888;4.724;2023-03-13T23:33:13;12.40;99.90
25302;DHT22;13243;50.888;4.724;2023-03-13T23:38:14;12.20;99.90
25302;DHT22;13243;50.888;4.724;2023-03-13T23:43:19;12.10;99.90
25302;DHT22;13243;50.888;4.724;2023-03-13T23:48:21;12.00;99.90
25302;DHT22;13243;50.888;4.724;2023-03-13T23:53:22;12.00;99.90
25302;DHT22;13243;50.888;4.724;2023-03-13T23:58:24;12.10;99.90
